Waialua, Hawaii
Current Conditions -  °F | °C
As of 3:05 AM on Thursday 18 Dec 2014 (Local Time) from PHHI Reporting Station
Drizzle Drizzle  
Wind Chill: 68°   Ceiling: 2200
Heat Index: 68°   Visibility: 9mi
Dew Point: 64°   Wind: 6mph
Humidity: 88%   Direction: 10°N
Pressure: 30.16"   Gusts: NA
Location:  21.57°N, 158.12°W
Report Text: PHHI 181305Z AUTO 01005KT 9SM DZ BKN022 20/18 A3016 RMK AO2 RAE1301DZB1301 BKN V OVC $
Loading
Personal Weather Stations






























Interactive Weather Map New forecast layout! Learn more

10-Day Weather Forecast

Advertisements
Track Severe Weather on mobile